CPX326 Details

Departure: Robert L. Stanfield International Airport (CYHZ)
Arrival: Miami International Airport (KMIA)
Route: YQI J585 ACK J62 JOANI SAWED J209 ORF J174 DIW SEELO AR22 JORAY HILEY7
Notes: LOBSTER KING


Current Weather Information
CYHZ 260100Z 33013KT 15SM SCT017 01/M01 A2992 RMK SC3 SLP138
KMIA 260053Z 14008KT 100V160 10SM FEW040 FEW140 BKN250 26/20 A2998 RMK AO2 SLP153 T02560200